Flight Track Log - Related Links

Times and Time Zones

All times are in EDT time to prevent confusion due to time zone crossing. See the CTL13 flight status page for this flight to view local times or setup timezone preferences in your user account.

Time Position Orientation Groundspeed Altitude Reporting Facility
EDT Latitude Longitude Course Direction KTS MPH feet Rate Location/Type
Mon 08:21:28 PM 39.9167 -86.2833 360° North 180 207 2,200  Level Indianapolis TRACON
Mon 08:22:16 PM 39.9475 -86.3281 312° West 173 199 2,600 491 Climbing Chicago Center
Mon 08:23:18 PM 39.9831 -86.3708 317° Northwest 172 198 3,100 484 Climbing Chicago Center
Mon 08:24:20 PM 40.0186 -86.4111 319° Northwest 171 197 3,600 390 Climbing Indianapolis Center
Mon 08:25:21 PM 40.0531 -86.4536 317° Northwest 170 196 3,900 390 Climbing Indianapolis Center
Mon 08:26:23 PM 40.0875 -86.4967 316° Northwest 170 196 4,400 435 Climbing Indianapolis Center
Mon 08:27:25 PM 40.1211 -86.5386 316° Northwest 168 193 4,800 484 Climbing Indianapolis Center
Mon 08:28:27 PM 40.1536 -86.5775 318° Northwest 162 186 5,400 532 Climbing Chicago Center
Mon 08:29:29 PM 40.1906 -86.6222 317° Northwest 156 180 5,900 452 Climbing Chicago Center
Mon 08:30:00 PM 40.2047 -86.6419 313° West 154 177 6,100 97 Climbing Chicago Center
Mon 08:30:31 PM 40.2225 -86.6611 321° Northwest 156 180 6,000  Descending Chicago Center
Mon 08:31:00 PM 40.2367 -86.6822 311° West 162 186 6,100  Climbing Chicago Center
Mon 08:31:33 PM 40.2564 -86.7050 319° Northwest 166 191 6,000 -98 Descending Chicago Center
Mon 08:32:01 PM 40.2728 -86.7281 313° West 169 194 6,000  Level Chicago Center
Mon 08:32:35 PM 40.2911 -86.7461 323° Northwest 168 193 6,000  Level Chicago Center
Mon 08:33:02 PM 40.3086 -86.7711 313° West 166 191 6,000  Level Chicago Center
Mon 08:33:37 PM 40.3256 -86.7875 324° Northwest 167 192 6,000 -100 Level Chicago Center
Mon 08:34:02 PM 40.3406 -86.8086 313° West 165 190 5,900  Descending Chicago Center
Mon 08:34:39 PM 40.3586 -86.8281 321° Northwest 163 188 6,000  Climbing Chicago Center
Mon 08:35:03 PM 40.3764 -86.8519 314° West 163 188 5,900  Descending Chicago Center
Mon 08:35:41 PM 40.3986 -86.8739 323° Northwest 163 188 6,000 100 Climbing Chicago Center
Mon 08:36:03 PM 40.4086 -86.8894 310° West 164 189 6,000 -97 Level Chicago Center
Mon 08:36:43 PM 40.4317 -86.9158 319° Northwest 164 189 5,900  Descending Chicago Center
Mon 08:37:04 PM 40.4422 -86.9328 309° West 164 189 6,000  Climbing Chicago Center
Mon 08:37:46 PM 40.4650 -86.9578 320° Northwest 164 189 5,900  Descending Chicago Center
Mon 08:38:11 PM 40.4781 -86.9761 313° West 162 186 6,000 97 Climbing Chicago Center
Mon 08:38:48 PM 40.4989 -86.9975 322° Northwest 163 188 6,000  Level Chicago Center
Mon 08:39:05 PM 40.5081 -87.0136 307° West 164 189 6,000  Level Chicago Center
Mon 08:40:00 PM 40.5400 -87.0514 318° Northwest 164 189 6,000  Level Chicago Center
Mon 08:40:52 PM 40.5664 -87.0778 323° Northwest 162 186 6,000  Level Chicago Center
Mon 08:41:54 PM 40.6192 -87.1019 341° North 171 197 6,000 48 Level Chicago Center
Mon 08:42:56 PM 40.6614 -87.1269 336° Northwest 170 196 6,100 48 Climbing Chicago Center
Mon 08:43:58 PM 40.7042 -87.1483 339° North 166 191 6,100  Level Chicago Center
Mon 08:45:00 PM 40.7461 -87.1739 335° Northwest 167 192 6,100  Level Chicago Center
Mon 08:46:02 PM 40.7897 -87.1972 338° Northwest 169 194 6,100  Level Chicago Center
Mon 08:47:04 PM 40.8414 -87.2242 338° Northwest 168 193 6,100  Level Chicago Center
Mon 08:48:06 PM 40.8839 -87.2475 337° Northwest 167 192 6,100  Level Chicago Center
Mon 08:49:08 PM 40.9272 -87.2731 336° Northwest 171 197 6,100  Level Chicago Center
Mon 08:50:10 PM 40.9703 -87.2953 339° North 168 193 6,100 -48 Level Chicago Center
Mon 08:51:12 PM 41.0153 -87.3172 340° North 171 197 6,000 -48 Descending Chicago Center
Mon 08:52:14 PM 41.0672 -87.3464 337° Northwest 170 196 6,000  Level Chicago Center
Mon 08:53:16 PM 41.1122 -87.3692 339° North 173 199 6,000 -97 Level Chicago Center
Mon 08:54:18 PM 41.1564 -87.3925 338° Northwest 173 199 5,800 -387 Descending Chicago Center
Mon 08:55:20 PM 41.2047 -87.4192 337° Northwest 183 211 5,200 -581 Descending Chicago Center
Mon 08:56:22 PM 41.2558 -87.4450 339° North 191 220 4,600 -581 Descending Chicago Center
Mon 08:57:24 PM 41.3183 -87.4769 339° North 197 227 4,000 -290 Descending Chicago Center
Mon 08:58:26 PM 41.3683 -87.5028 339° North 198 228 4,000  Level Chicago Center
Mon 08:59:28 PM 41.4161 -87.5269 339° North 192 221 4,000  Level Chicago Center
Mon 09:00:30 PM 41.4664 -87.5500 341° North 191 220 4,000  Level Chicago Center
Mon 09:01:32 PM 41.5161 -87.5742 340° North 192 221 4,000  Level Chicago Center
Mon 09:02:34 PM 41.5769 -87.5883 350° North 193 222 4,000  Level Chicago Center
Mon 09:03:36 PM 41.6303 -87.5967 353° North 194 223 4,000  Level Chicago Center
Mon 09:04:38 PM 41.6833 -87.5836 10° North 197 227 4,000 -532 Level Chicago Center
Mon 09:05:40 PM 41.7350 -87.5461 28° Northeast 206 237 2,900 -726 Descending Chicago Center
Mon 09:06:42 PM 41.7883 -87.5642 346° North 218 251 2,500 -339 Descending Chicago Center
Mon 09:07:44 PM 41.8278 -87.6292 309° West 201 231 2,200 -387 Descending Chicago Center
Mon 09:08:46 PM 41.8214 -87.6919 262° West 183 211 1,700 -290 Descending Chicago Center
Mon 09:09:48 PM 41.8064 -87.7511 251° West 170 196 1,600 -97 Descending Chicago Center
Mon 09:11:00 PM 41.7833 -87.7500 262° West  Level FlightAware Approximate

Login

Don't have an account? Register now (free) for customized features, flight alerts, and more!